GS63A EGBN-EGGP
Flight info
| Callsign | GS63A |
|---|---|
| Flight time | 0h 35m |
| Altitude | 7000 |
| Route | ODPIX DCT TNT DCT WHI DCT EKLAD |
| Aircraft | DHC6/L-SDFGR/C |
Departure
| Time | 2026-05-04 13:08 |
|---|---|
| Airport | Nottingham City Airport (EGBN) |
Arrival
| Time | 2026-05-04 13:43 |
|---|---|
| Airport | Liverpool John Lennon Airport (EGGP) |
| Time | Latitude | Longitude | Altitude | Speed | Heading |
|---|---|---|---|---|---|
| 2026-05-04 12:54 | 52.91975 | -1.08137 | 120 ft | 0 kts | 235° |
| 2026-05-04 13:04 | 52.91976 | -1.08133 | 120 ft | 5 kts | 235° |
| 2026-05-04 13:04 | 52.91989 | -1.08109 | 120 ft | 0 kts | 178° |
| 2026-05-04 13:04 | 52.91988 | -1.08109 | 120 ft | 1 kts | 177° |
| 2026-05-04 13:04 | 52.91954 | -1.08092 | 119 ft | 9 kts | 158° |
| 2026-05-04 13:05 | 52.91935 | -1.08206 | 122 ft | 14 kts | 290° |
| 2026-05-04 13:05 | 52.91943 | -1.08326 | 124 ft | 16 kts | 268° |
| 2026-05-04 13:05 | 52.91940 | -1.08530 | 129 ft | 19 kts | 266° |
| 2026-05-04 13:05 | 52.91999 | -1.08746 | 133 ft | 1 kts | 329° |
| 2026-05-04 13:06 | 52.91999 | -1.08747 | 133 ft | 0 kts | 328° |
| 2026-05-04 13:07 | 52.92018 | -1.08760 | 133 ft | 6 kts | 344° |
| 2026-05-04 13:07 | 52.92072 | -1.08726 | 132 ft | 11 kts | 66° |
| 2026-05-04 13:07 | 52.92077 | -1.08439 | 127 ft | 63 kts | 90° |
| 2026-05-04 13:07 | 52.92022 | -1.07032 | 590 ft | 104 kts | 89° |
| 2026-05-04 13:08 | 52.92014 | -1.06303 | 1060 ft | 97 kts | 88° |
| 2026-05-04 13:08 | 52.92001 | -1.05214 | 1639 ft | 97 kts | 88° |
| 2026-05-04 13:08 | 52.91974 | -1.04113 | 2204 ft | 99 kts | 95° |
| 2026-05-04 13:08 | 52.91584 | -1.03172 | 2771 ft | 106 kts | 143° |
| 2026-05-04 13:09 | 52.90872 | -1.02953 | 3313 ft | 112 kts | 188° |
| 2026-05-04 13:09 | 52.90226 | -1.03632 | 3872 ft | 113 kts | 236° |
| 2026-05-04 13:09 | 52.90110 | -1.05200 | 4590 ft | 108 kts | 295° |
| 2026-05-04 13:09 | 52.90403 | -1.05844 | 4947 ft | 106 kts | 319° |
| 2026-05-04 13:10 | 52.90958 | -1.06624 | 5472 ft | 106 kts | 320° |
| 2026-05-04 13:10 | 52.91462 | -1.07483 | 5977 ft | 107 kts | 309° |
| 2026-05-04 13:10 | 52.91876 | -1.08480 | 6487 ft | 107 kts | 301° |
| 2026-05-04 13:10 | 52.92228 | -1.09541 | 6950 ft | 110 kts | 296° |
| 2026-05-04 13:11 | 52.92586 | -1.10799 | 7068 ft | 129 kts | 294° |
| 2026-05-04 13:11 | 52.92950 | -1.12219 | 7076 ft | 137 kts | 292° |
| 2026-05-04 13:11 | 52.93306 | -1.13690 | 7075 ft | 142 kts | 291° |
| 2026-05-04 13:11 | 52.93673 | -1.15251 | 7072 ft | 145 kts | 291° |
| 2026-05-04 13:12 | 52.94033 | -1.16806 | 7073 ft | 147 kts | 291° |
| 2026-05-04 13:12 | 52.94399 | -1.18399 | 7076 ft | 148 kts | 291° |
| 2026-05-04 13:12 | 52.94769 | -1.20017 | 7077 ft | 150 kts | 290° |
| 2026-05-04 13:12 | 52.95136 | -1.21622 | 7072 ft | 150 kts | 291° |
| 2026-05-04 13:13 | 52.95505 | -1.23231 | 7073 ft | 150 kts | 291° |
| 2026-05-04 13:13 | 52.95873 | -1.24846 | 7072 ft | 150 kts | 290° |
| 2026-05-04 13:13 | 52.96245 | -1.26479 | 7071 ft | 150 kts | 290° |
| 2026-05-04 13:13 | 52.96614 | -1.28101 | 7069 ft | 151 kts | 290° |
| 2026-05-04 13:14 | 52.96983 | -1.29720 | 7074 ft | 151 kts | 290° |
| 2026-05-04 13:14 | 52.97353 | -1.31346 | 7076 ft | 151 kts | 290° |
| 2026-05-04 13:14 | 52.97718 | -1.32955 | 7073 ft | 151 kts | 290° |
| 2026-05-04 13:14 | 52.98089 | -1.34586 | 7074 ft | 151 kts | 290° |
| 2026-05-04 13:15 | 52.98459 | -1.36216 | 7073 ft | 151 kts | 290° |
| 2026-05-04 13:15 | 52.98829 | -1.37847 | 7073 ft | 150 kts | 290° |
| 2026-05-04 13:15 | 52.99193 | -1.39455 | 7072 ft | 150 kts | 290° |
| 2026-05-04 13:15 | 52.99563 | -1.41090 | 7074 ft | 151 kts | 290° |
| 2026-05-04 13:16 | 52.99930 | -1.42711 | 7076 ft | 151 kts | 290° |
| 2026-05-04 13:16 | 53.00298 | -1.44341 | 7074 ft | 151 kts | 290° |
| 2026-05-04 13:16 | 53.00668 | -1.45974 | 7073 ft | 151 kts | 290° |
| 2026-05-04 13:16 | 53.01037 | -1.47608 | 7075 ft | 151 kts | 290° |
| 2026-05-04 13:17 | 53.01407 | -1.49231 | 7071 ft | 151 kts | 292° |
| 2026-05-04 13:17 | 53.01883 | -1.50783 | 7068 ft | 150 kts | 292° |
| 2026-05-04 13:17 | 53.02198 | -1.52433 | 7072 ft | 150 kts | 287° |
| 2026-05-04 13:17 | 53.02557 | -1.54041 | 7070 ft | 150 kts | 297° |
| 2026-05-04 13:18 | 53.03059 | -1.55576 | 7070 ft | 150 kts | 297° |
| 2026-05-04 13:18 | 53.03353 | -1.57212 | 7072 ft | 150 kts | 284° |
| 2026-05-04 13:18 | 53.03643 | -1.58894 | 7072 ft | 150 kts | 287° |
| 2026-05-04 13:18 | 53.03972 | -1.60531 | 7071 ft | 151 kts | 289° |
| 2026-05-04 13:19 | 53.04324 | -1.62178 | 7070 ft | 151 kts | 290° |
| 2026-05-04 13:19 | 53.04684 | -1.63813 | 7071 ft | 151 kts | 290° |
| 2026-05-04 13:19 | 53.05047 | -1.65447 | 7070 ft | 151 kts | 289° |
| 2026-05-04 13:19 | 53.05397 | -1.67093 | 7071 ft | 151 kts | 285° |
| 2026-05-04 13:20 | 53.05652 | -1.68804 | 7069 ft | 151 kts | 283° |
| 2026-05-04 13:20 | 53.05890 | -1.70503 | 7069 ft | 151 kts | 283° |
| 2026-05-04 13:20 | 53.06128 | -1.72194 | 7068 ft | 151 kts | 282° |
| 2026-05-04 13:20 | 53.06369 | -1.73905 | 7069 ft | 151 kts | 282° |
| 2026-05-04 13:21 | 53.06607 | -1.75599 | 7069 ft | 152 kts | 282° |
| 2026-05-04 13:21 | 53.06847 | -1.77305 | 7067 ft | 152 kts | 283° |
| 2026-05-04 13:21 | 53.07090 | -1.79030 | 7068 ft | 152 kts | 283° |
| 2026-05-04 13:21 | 53.07331 | -1.80740 | 7067 ft | 152 kts | 283° |
| 2026-05-04 13:22 | 53.07569 | -1.82435 | 7065 ft | 152 kts | 282° |
| 2026-05-04 13:22 | 53.07808 | -1.84145 | 7068 ft | 152 kts | 282° |
| 2026-05-04 13:22 | 53.08048 | -1.85862 | 7067 ft | 152 kts | 282° |
| 2026-05-04 13:22 | 53.08287 | -1.87581 | 7068 ft | 152 kts | 282° |
| 2026-05-04 13:23 | 53.08524 | -1.89274 | 7068 ft | 152 kts | 282° |
| 2026-05-04 13:23 | 53.08763 | -1.90997 | 7067 ft | 153 kts | 282° |
| 2026-05-04 13:23 | 53.09002 | -1.92708 | 7066 ft | 153 kts | 282° |
| 2026-05-04 13:23 | 53.09243 | -1.94442 | 7066 ft | 153 kts | 282° |
| 2026-05-04 13:24 | 53.09481 | -1.96152 | 7067 ft | 153 kts | 282° |
| 2026-05-04 13:24 | 53.09721 | -1.97880 | 7065 ft | 153 kts | 282° |
| 2026-05-04 13:24 | 53.09961 | -1.99608 | 7063 ft | 153 kts | 282° |
| 2026-05-04 13:25 | 53.10434 | -2.03017 | 7063 ft | 152 kts | 282° |
| 2026-05-04 13:25 | 53.10672 | -2.04744 | 7065 ft | 152 kts | 282° |
| 2026-05-04 13:25 | 53.10909 | -2.06458 | 7065 ft | 152 kts | 282° |
| 2026-05-04 13:25 | 53.11145 | -2.08167 | 7064 ft | 152 kts | 282° |
| 2026-05-04 13:26 | 53.11382 | -2.09886 | 7066 ft | 152 kts | 282° |
| 2026-05-04 13:26 | 53.11619 | -2.11606 | 7065 ft | 152 kts | 282° |
| 2026-05-04 13:26 | 53.11855 | -2.13313 | 7067 ft | 152 kts | 283° |
| 2026-05-04 13:26 | 53.12092 | -2.15030 | 7068 ft | 152 kts | 283° |
| 2026-05-04 13:27 | 53.12328 | -2.16742 | 7068 ft | 151 kts | 283° |
| 2026-05-04 13:27 | 53.12563 | -2.18451 | 7068 ft | 151 kts | 283° |
| 2026-05-04 13:27 | 53.12796 | -2.20151 | 7069 ft | 151 kts | 283° |
| 2026-05-04 13:27 | 53.13028 | -2.21852 | 7070 ft | 151 kts | 283° |
| 2026-05-04 13:28 | 53.13260 | -2.23545 | 7070 ft | 151 kts | 283° |
| 2026-05-04 13:28 | 53.13492 | -2.25249 | 7072 ft | 151 kts | 283° |
| 2026-05-04 13:28 | 53.13726 | -2.26967 | 7072 ft | 151 kts | 283° |
| 2026-05-04 13:28 | 53.13957 | -2.28656 | 7072 ft | 151 kts | 283° |
| 2026-05-04 13:29 | 53.14189 | -2.30365 | 7073 ft | 151 kts | 283° |
| 2026-05-04 13:29 | 53.14419 | -2.32059 | 7077 ft | 151 kts | 283° |
| 2026-05-04 13:29 | 53.14652 | -2.33777 | 7077 ft | 151 kts | 283° |
| 2026-05-04 13:29 | 53.14883 | -2.35482 | 7077 ft | 151 kts | 283° |
| 2026-05-04 13:30 | 53.15115 | -2.37200 | 7077 ft | 151 kts | 283° |
| 2026-05-04 13:30 | 53.15345 | -2.38900 | 7077 ft | 152 kts | 284° |
| 2026-05-04 13:30 | 53.15577 | -2.40616 | 7076 ft | 152 kts | 283° |
| 2026-05-04 13:30 | 53.15807 | -2.42326 | 7077 ft | 152 kts | 284° |
| 2026-05-04 13:31 | 53.16039 | -2.44045 | 7078 ft | 152 kts | 284° |
| 2026-05-04 13:31 | 53.16270 | -2.45762 | 7079 ft | 152 kts | 284° |
| 2026-05-04 13:31 | 53.16502 | -2.47485 | 7081 ft | 152 kts | 284° |
| 2026-05-04 13:31 | 53.16730 | -2.49186 | 7049 ft | 150 kts | 284° |
| 2026-05-04 13:32 | 53.16961 | -2.50913 | 6842 ft | 151 kts | 284° |
| 2026-05-04 13:32 | 53.17189 | -2.52614 | 6605 ft | 152 kts | 284° |
| 2026-05-04 13:32 | 53.17419 | -2.54332 | 6366 ft | 153 kts | 285° |
| 2026-05-04 13:32 | 53.17652 | -2.56080 | 6131 ft | 154 kts | 285° |
| 2026-05-04 13:33 | 53.17884 | -2.57810 | 5924 ft | 152 kts | 285° |
| 2026-05-04 13:33 | 53.18109 | -2.59499 | 5713 ft | 152 kts | 284° |
| 2026-05-04 13:33 | 53.18340 | -2.61224 | 5490 ft | 151 kts | 285° |
| 2026-05-04 13:33 | 53.18913 | -2.62625 | 5256 ft | 148 kts | 328° |
| 2026-05-04 13:34 | 53.19880 | -2.63103 | 5041 ft | 146 kts | 356° |
| 2026-05-04 13:34 | 53.20902 | -2.63037 | 4835 ft | 145 kts | 7° |
| 2026-05-04 13:34 | 53.21895 | -2.62772 | 4616 ft | 146 kts | 12° |
| 2026-05-04 13:34 | 53.22883 | -2.62415 | 4415 ft | 145 kts | 13° |
| 2026-05-04 13:35 | 53.23856 | -2.62021 | 4216 ft | 145 kts | 14° |
| 2026-05-04 13:35 | 53.25805 | -2.61183 | 3814 ft | 144 kts | 15° |
| 2026-05-04 13:35 | 53.26770 | -2.60761 | 3618 ft | 144 kts | 15° |
| 2026-05-04 13:36 | 53.27725 | -2.60340 | 3429 ft | 143 kts | 15° |
| 2026-05-04 13:36 | 53.28685 | -2.59917 | 3234 ft | 143 kts | 15° |
| 2026-05-04 13:36 | 53.29653 | -2.59489 | 3033 ft | 143 kts | 15° |
| 2026-05-04 13:36 | 53.30606 | -2.59068 | 2850 ft | 142 kts | 15° |
| 2026-05-04 13:37 | 53.31544 | -2.58654 | 2622 ft | 141 kts | 15° |
| 2026-05-04 13:37 | 53.32491 | -2.58235 | 2329 ft | 141 kts | 16° |
| 2026-05-04 13:37 | 53.33456 | -2.58117 | 2058 ft | 140 kts | 344° |
| 2026-05-04 13:37 | 53.34156 | -2.59108 | 1995 ft | 129 kts | 300° |
| 2026-05-04 13:38 | 53.34319 | -2.60501 | 1989 ft | 118 kts | 274° |
| 2026-05-04 13:38 | 53.34335 | -2.61827 | 1987 ft | 109 kts | 271° |
| 2026-05-04 13:38 | 53.34317 | -2.63051 | 1987 ft | 102 kts | 270° |
| 2026-05-04 13:38 | 53.34284 | -2.64207 | 1987 ft | 96 kts | 269° |
| 2026-05-04 13:39 | 53.34245 | -2.65294 | 1987 ft | 91 kts | 267° |
| 2026-05-04 13:39 | 53.34198 | -2.66322 | 1988 ft | 86 kts | 267° |
| 2026-05-04 13:39 | 53.34153 | -2.67300 | 1949 ft | 86 kts | 267° |
| 2026-05-04 13:39 | 53.34106 | -2.68365 | 1852 ft | 99 kts | 266° |
| 2026-05-04 13:40 | 53.34053 | -2.69584 | 1735 ft | 110 kts | 266° |
| 2026-05-04 13:40 | 53.33995 | -2.70888 | 1586 ft | 115 kts | 266° |
| 2026-05-04 13:40 | 53.33935 | -2.72233 | 1429 ft | 118 kts | 266° |
| 2026-05-04 13:40 | 53.33874 | -2.73605 | 1267 ft | 120 kts | 266° |
| 2026-05-04 13:41 | 53.33812 | -2.75013 | 1110 ft | 119 kts | 266° |
| 2026-05-04 13:41 | 53.33753 | -2.76315 | 944 ft | 108 kts | 265° |
| 2026-05-04 13:41 | 53.33699 | -2.77524 | 798 ft | 99 kts | 265° |
| 2026-05-04 13:42 | 53.33605 | -2.79596 | 552 ft | 79 kts | 266° |
| 2026-05-04 13:42 | 53.33565 | -2.80513 | 450 ft | 80 kts | 264° |
| 2026-05-04 13:42 | 53.33523 | -2.81450 | 345 ft | 81 kts | 263° |
| 2026-05-04 13:42 | 53.33472 | -2.82374 | 241 ft | 80 kts | 263° |
| 2026-05-04 13:43 | 53.33430 | -2.83318 | 120 ft | 81 kts | 267° |
| 2026-05-04 13:43 | 53.33404 | -2.84116 | 86 ft | 52 kts | 261° |
| 2026-05-04 13:43 | 53.33380 | -2.84572 | 84 ft | 27 kts | 258° |
| 2026-05-04 13:43 | 53.33371 | -2.84792 | 83 ft | 12 kts | 266° |
| 2026-05-04 13:44 | 53.33366 | -2.84892 | 83 ft | 5 kts | 264° |
| 2026-05-04 13:44 | 53.33362 | -2.84963 | 83 ft | 8 kts | 264° |
| 2026-05-04 13:44 | 53.33357 | -2.85097 | 82 ft | 14 kts | 268° |
| 2026-05-04 13:44 | 53.33372 | -2.85289 | 81 ft | 18 kts | 287° |
| 2026-05-04 13:45 | 53.33414 | -2.85485 | 80 ft | 16 kts | 291° |
| 2026-05-04 13:45 | 53.33444 | -2.85610 | 80 ft | 0 kts | 289° |
| 2026-05-04 13:45 | 53.33446 | -2.85617 | 80 ft | 3 kts | 289° |
| 2026-05-04 13:45 | 53.33484 | -2.85659 | 80 ft | 9 kts | 19° |
| 2026-05-04 13:46 | 53.33508 | -2.85554 | 81 ft | 11 kts | 83° |
| 2026-05-04 13:46 | 53.33572 | -2.85510 | 81 ft | 12 kts | 355° |
| 2026-05-04 13:46 | 53.33656 | -2.85522 | 82 ft | 8 kts | 355° |
| 2026-05-04 13:46 | 53.33671 | -2.85525 | 82 ft | 0 kts | 354° |